createdAt,value
2022-11-05T00:00:05.443Z,10.08
2022-11-05T00:02:50.296Z,10.09
2022-11-05T00:05:35.499Z,10.01
2022-11-05T00:08:22.735Z,10.02
2022-11-05T00:10:49.337Z,10.08
2022-11-05T00:13:34.754Z,10.07
2022-11-05T00:16:19.574Z,10.04
2022-11-05T00:19:06.004Z,9.98
2022-11-05T00:21:52.183Z,9.94
2022-11-05T00:24:37.582Z,9.95
2022-11-05T00:27:04.639Z,9.94
2022-11-05T00:29:31.040Z,9.88
2022-11-05T00:31:57.469Z,9.79
2022-11-05T00:34:23.948Z,9.81
2022-11-05T00:36:50.373Z,9.87
2022-11-05T00:39:16.761Z,9.91
2022-11-05T00:41:43.159Z,9.81
2022-11-05T00:44:28.158Z,9.77
2022-11-05T00:47:14.516Z,9.75
2022-11-05T00:49:40.926Z,9.59
2022-11-05T00:52:25.605Z,9.41
2022-11-05T00:54:52.019Z,9.37
2022-11-05T00:57:18.416Z,9.32
2022-11-05T00:59:44.794Z,9.27
2022-11-05T01:02:11.403Z,9.25
2022-11-05T01:04:37.913Z,9.32
2022-11-05T01:07:04.329Z,9.38
2022-11-05T01:09:30.765Z,9.41
2022-11-05T01:11:57.158Z,9.24
2022-11-05T01:14:23.586Z,9.19
2022-11-05T01:16:50.008Z,9.22
2022-11-05T01:19:16.410Z,9.28
2022-11-05T01:21:42.810Z,9.36
2022-11-05T01:24:10.705Z,9.36
2022-11-05T01:26:37.128Z,9.40
2022-11-05T01:29:03.681Z,9.35
2022-11-05T01:31:30.851Z,9.30
2022-11-05T01:33:57.325Z,9.21
2022-11-05T01:36:23.739Z,9.14
2022-11-05T01:38:50.191Z,9.12
2022-11-05T01:41:16.671Z,9.17
2022-11-05T01:43:55.465Z,9.18
2022-11-05T01:46:45.875Z,9.07
2022-11-05T01:49:26.929Z,9.11
2022-11-05T01:51:55.733Z,9.15
2022-11-05T01:54:27.826Z,9.13
2022-11-05T01:57:00.440Z,9.07
2022-11-05T01:59:38.028Z,9.02
2022-11-05T02:02:07.712Z,9.02
2022-11-05T02:04:57.535Z,9.00
2022-11-05T02:07:26.743Z,9.13
2022-11-05T02:09:55.778Z,9.24
2022-11-05T02:12:23.565Z,9.27
2022-11-05T02:14:49.970Z,9.20
2022-11-05T02:17:35.357Z,9.16
2022-11-05T02:20:31.377Z,9.06
2022-11-05T02:23:06.767Z,9.00
2022-11-05T02:25:58.027Z,9.05
2022-11-05T02:28:30.388Z,8.97
2022-11-05T02:30:59.768Z,8.92
2022-11-05T02:33:35.782Z,8.90
2022-11-05T02:36:28.546Z,8.93
2022-11-05T02:38:58.018Z,8.92
2022-11-05T02:42:05.141Z,8.92
2022-11-05T02:45:09.028Z,8.95
2022-11-05T02:47:50.943Z,9.01
2022-11-05T02:50:30.948Z,9.02
2022-11-05T02:53:16.609Z,8.82
2022-11-05T02:56:13.005Z,8.54
2022-11-05T02:58:39.409Z,8.52
2022-11-05T03:01:07.049Z,8.49
2022-11-05T03:03:43.238Z,8.47
2022-11-05T03:06:22.477Z,8.54
2022-11-05T03:09:16.679Z,8.56
2022-11-05T03:12:03.731Z,8.66
2022-11-05T03:14:48.531Z,8.51
2022-11-05T03:17:17.982Z,8.48
2022-11-05T03:19:47.263Z,8.37
2022-11-05T03:22:41.382Z,8.37
2022-11-05T03:25:21.627Z,8.36
2022-11-05T03:27:52.472Z,8.29
2022-11-05T03:30:19.949Z,8.20
2022-11-05T03:32:56.058Z,8.20
2022-11-05T03:35:39.905Z,8.24
2022-11-05T03:38:18.941Z,8.34
2022-11-05T03:40:49.495Z,8.27
2022-11-05T03:43:18.211Z,8.08
2022-11-05T03:45:50.727Z,8.07
2022-11-05T03:48:20.422Z,8.05
2022-11-05T03:50:56.336Z,8.20
2022-11-05T03:53:26.210Z,8.21
2022-11-05T03:55:59.301Z,8.15
2022-11-05T03:58:26.591Z,8.10
2022-11-05T04:00:53.380Z,8.09
2022-11-05T04:03:19.955Z,8.20
2022-11-05T04:06:07.041Z,8.14
2022-11-05T04:08:52.160Z,8.06
2022-11-05T04:11:37.085Z,8.09
2022-11-05T04:14:03.602Z,8.09
2022-11-05T04:16:48.599Z,8.07
2022-11-05T04:19:34.964Z,8.02
2022-11-05T04:22:27.381Z,8.04
2022-11-05T04:24:53.811Z,8.00
2022-11-05T04:27:20.210Z,7.88
2022-11-05T04:30:05.159Z,7.70
2022-11-05T04:32:31.610Z,7.65
2022-11-05T04:34:58.081Z,7.78
2022-11-05T04:37:24.673Z,7.51
2022-11-05T04:39:51.142Z,7.39
2022-11-05T04:42:17.555Z,7.36
2022-11-05T04:44:43.983Z,7.43
2022-11-05T04:47:10.387Z,7.49
2022-11-05T04:49:36.886Z,7.66
2022-11-05T04:52:03.437Z,7.70
2022-11-05T04:54:29.936Z,7.69
2022-11-05T04:56:56.476Z,7.67
2022-11-05T04:59:22.866Z,7.62
2022-11-05T05:01:53.089Z,7.58
2022-11-05T05:04:20.598Z,7.50
2022-11-05T05:06:46.988Z,7.72
2022-11-05T05:09:13.408Z,7.86
2022-11-05T05:11:41.027Z,7.77
2022-11-05T05:14:08.195Z,7.76
2022-11-05T05:16:34.621Z,7.69
2022-11-05T05:19:01.030Z,7.64
2022-11-05T05:21:39.507Z,7.77
2022-11-05T05:24:13.951Z,7.70
2022-11-05T05:26:50.984Z,7.72
2022-11-05T05:29:18.201Z,7.79
2022-11-05T05:31:44.610Z,7.69
2022-11-05T05:34:12.646Z,7.61
2022-11-05T05:36:39.280Z,7.52
2022-11-05T05:39:07.103Z,7.47
2022-11-05T05:41:33.977Z,7.43
2022-11-05T05:44:00.398Z,7.35
2022-11-05T05:46:26.790Z,7.29
2022-11-05T05:48:53.312Z,7.17
2022-11-05T05:51:20.079Z,7.16
2022-11-05T05:53:46.710Z,7.18
2022-11-05T05:56:15.049Z,7.24
2022-11-05T05:58:41.993Z,7.31
2022-11-05T06:01:18.311Z,7.30
2022-11-05T06:03:45.263Z,7.29
2022-11-05T06:06:13.409Z,7.22
2022-11-05T06:08:40.564Z,7.20
2022-11-05T06:11:07.449Z,7.17
2022-11-05T06:13:34.560Z,7.22
2022-11-05T06:16:05.323Z,7.08
2022-11-05T06:18:32.759Z,6.99
2022-11-05T06:21:03.671Z,6.97
2022-11-05T06:23:34.425Z,7.05
2022-11-05T06:26:02.341Z,7.17
2022-11-05T06:28:29.573Z,7.36
2022-11-05T06:30:57.388Z,7.47
2022-11-05T06:33:24.104Z,7.54
2022-11-05T06:35:50.667Z,7.66
2022-11-05T06:38:17.182Z,7.86
2022-11-05T06:40:43.600Z,7.92
2022-11-05T06:43:10.413Z,8.01
2022-11-05T06:45:37.078Z,8.16
2022-11-05T06:48:03.636Z,8.26
2022-11-05T06:50:30.103Z,8.13
2022-11-05T06:53:05.676Z,8.03
2022-11-05T06:55:32.139Z,8.12
2022-11-05T06:57:58.638Z,8.31
2022-11-05T07:00:25.390Z,8.37
2022-11-05T07:02:51.916Z,8.48
2022-11-05T07:05:18.334Z,8.58
2022-11-05T07:07:45.508Z,8.63
2022-11-05T07:10:14.933Z,8.71
2022-11-05T07:12:41.396Z,8.80
2022-11-05T07:15:09.038Z,8.86
2022-11-05T07:17:35.439Z,8.88
2022-11-05T07:20:01.975Z,8.92
2022-11-05T07:22:28.391Z,8.95
2022-11-05T07:24:54.780Z,8.97
2022-11-05T07:27:21.300Z,9.08
2022-11-05T07:29:47.723Z,9.13
2022-11-05T07:32:14.127Z,9.19
2022-11-05T07:34:40.571Z,9.22
2022-11-05T07:37:07.092Z,9.15
2022-11-05T07:39:33.515Z,9.12
2022-11-05T07:42:00.000Z,9.17
2022-11-05T07:44:26.424Z,9.23
2022-11-05T07:46:53.005Z,9.27
2022-11-05T07:49:19.417Z,9.32
2022-11-05T07:51:46.072Z,9.32
2022-11-05T07:54:12.539Z,9.30
2022-11-05T07:56:38.972Z,9.29
2022-11-05T07:59:05.555Z,9.31
2022-11-05T08:01:32.263Z,9.36
2022-11-05T08:03:58.818Z,9.36
2022-11-05T08:06:25.252Z,9.42
2022-11-05T08:08:51.664Z,9.48
2022-11-05T08:11:18.879Z,9.51
2022-11-05T08:13:45.416Z,9.56
2022-11-05T08:16:11.979Z,9.62
2022-11-05T08:18:38.487Z,9.71
2022-11-05T08:21:05.798Z,9.77
2022-11-05T08:23:32.851Z,9.79
2022-11-05T08:25:59.285Z,9.81
2022-11-05T08:28:26.616Z,9.93
2022-11-05T08:30:55.685Z,9.99
2022-11-05T08:33:24.009Z,10.06
2022-11-05T08:35:50.864Z,10.13
2022-11-05T08:38:19.154Z,10.26
2022-11-05T08:40:53.421Z,10.29
2022-11-05T08:43:20.122Z,10.32
2022-11-05T08:45:46.560Z,10.43
2022-11-05T08:48:15.322Z,10.41
2022-11-05T08:50:42.488Z,10.44
2022-11-05T08:53:09.976Z,10.48
2022-11-05T08:55:38.345Z,10.54
2022-11-05T08:58:07.572Z,10.62
2022-11-05T09:00:37.343Z,10.73
2022-11-05T09:03:06.127Z,10.74
2022-11-05T09:05:40.395Z,10.79
2022-11-05T09:08:08.836Z,10.83
2022-11-05T09:10:35.951Z,10.89
2022-11-05T09:13:02.935Z,10.98
2022-11-05T09:15:30.352Z,11.03
2022-11-05T09:17:57.493Z,10.99
2022-11-05T09:20:24.052Z,11.10
2022-11-05T09:22:50.647Z,11.23
2022-11-05T09:25:17.334Z,11.34
2022-11-05T09:27:44.019Z,11.44
2022-11-05T09:30:12.447Z,11.58
2022-11-05T09:32:38.910Z,11.63
2022-11-05T09:35:05.868Z,11.66
2022-11-05T09:37:32.790Z,11.73
2022-11-05T09:39:59.260Z,11.79
2022-11-05T09:42:32.412Z,11.95
2022-11-05T09:45:03.043Z,11.87
2022-11-05T09:47:34.394Z,12.05
2022-11-05T09:50:02.253Z,12.20
2022-11-05T09:52:30.833Z,12.34
2022-11-05T09:54:57.959Z,12.51
2022-11-05T09:57:52.240Z,12.55
2022-11-05T10:00:19.019Z,12.47
2022-11-05T10:02:57.414Z,12.60
2022-11-05T10:05:25.958Z,12.82
2022-11-05T10:08:16.942Z,12.87
2022-11-05T10:10:48.338Z,12.91
2022-11-05T10:13:35.204Z,12.98
2022-11-05T10:16:09.716Z,13.12
2022-11-05T10:18:47.382Z,13.25
2022-11-05T10:21:32.333Z,13.34
2022-11-05T10:24:16.058Z,13.40
2022-11-05T10:26:43.503Z,13.56
2022-11-05T10:29:15.902Z,13.53
2022-11-05T10:31:43.240Z,13.58
2022-11-05T10:34:13.604Z,13.67
2022-11-05T10:36:40.247Z,13.74
2022-11-05T10:39:15.603Z,13.79
2022-11-05T10:42:09.651Z,13.82
2022-11-05T10:44:36.014Z,13.71
2022-11-05T10:47:14.877Z,13.73
2022-11-05T10:49:44.087Z,13.87
2022-11-05T10:52:21.324Z,13.90
2022-11-05T10:54:50.874Z,14.10
2022-11-05T10:57:36.268Z,14.11
2022-11-05T11:00:15.000Z,14.29
2022-11-05T11:02:51.888Z,14.32
2022-11-05T11:05:22.697Z,14.32
2022-11-05T11:08:12.213Z,14.39
2022-11-05T11:10:47.998Z,14.46
2022-11-05T11:13:22.075Z,14.65
2022-11-05T11:15:50.904Z,14.75
2022-11-05T11:18:31.520Z,14.71
2022-11-05T11:21:23.015Z,14.71
2022-11-05T11:23:58.308Z,14.80
2022-11-05T11:26:29.564Z,14.96
2022-11-05T11:29:07.167Z,14.77
2022-11-05T11:31:38.328Z,14.79
2022-11-05T11:34:06.135Z,14.85
2022-11-05T11:36:42.867Z,14.87
2022-11-05T11:39:30.428Z,14.74
2022-11-05T11:42:01.034Z,14.86
2022-11-05T11:44:31.036Z,15.10
2022-11-05T11:47:01.924Z,15.16
2022-11-05T11:49:39.997Z,15.13
2022-11-05T11:52:13.199Z,15.25
2022-11-05T11:54:39.613Z,15.35
2022-11-05T11:57:26.807Z,15.25
2022-11-05T12:00:08.498Z,15.41
2022-11-05T12:03:02.878Z,15.47
2022-11-05T12:05:53.343Z,15.55
2022-11-05T12:08:32.907Z,15.58
2022-11-05T12:11:11.688Z,15.60
2022-11-05T12:14:20.305Z,15.54
2022-11-05T12:16:55.932Z,15.58
2022-11-05T12:19:57.883Z,15.65
2022-11-05T12:22:55.331Z,15.69
2022-11-05T12:25:30.891Z,15.72
2022-11-05T12:28:16.672Z,15.85
2022-11-05T12:31:05.851Z,15.82
2022-11-05T12:33:47.733Z,15.78
2022-11-05T12:36:49.080Z,15.65
2022-11-05T12:39:34.059Z,15.62
2022-11-05T12:42:00.423Z,15.69
2022-11-05T12:44:42.339Z,15.68
2022-11-05T12:47:20.685Z,15.69
2022-11-05T12:50:13.242Z,15.78
2022-11-05T12:53:17.019Z,15.75
2022-11-05T12:55:49.379Z,15.73
2022-11-05T12:58:37.155Z,15.78
2022-11-05T13:01:17.869Z,15.81
2022-11-05T13:03:56.001Z,15.77
2022-11-05T13:06:32.847Z,15.79
2022-11-05T13:09:08.986Z,15.81
2022-11-05T13:11:41.913Z,15.79
2022-11-05T13:14:21.393Z,15.93
2022-11-05T13:16:52.336Z,15.93
2022-11-05T13:19:30.120Z,15.88
2022-11-05T13:22:07.865Z,15.86
2022-11-05T13:24:48.671Z,15.95
2022-11-05T13:27:53.367Z,15.95
2022-11-05T13:30:22.955Z,15.95
2022-11-05T13:32:59.832Z,15.99
2022-11-05T13:35:41.426Z,16.08
2022-11-05T13:38:34.654Z,16.15
2022-11-05T13:41:24.335Z,16.12
2022-11-05T13:44:01.141Z,16.14
2022-11-05T13:46:47.219Z,16.08
2022-11-05T13:49:18.674Z,16.12
2022-11-05T13:51:50.035Z,16.12
2022-11-05T13:54:35.140Z,16.03
2022-11-05T13:57:13.918Z,16.01
2022-11-05T14:00:03.007Z,15.99
2022-11-05T14:02:36.540Z,16.01
2022-11-05T14:05:05.465Z,16.00
2022-11-05T14:07:36.410Z,15.96
2022-11-05T14:10:05.828Z,16.03
2022-11-05T14:12:37.627Z,16.07
2022-11-05T14:15:09.357Z,16.11
2022-11-05T14:17:55.578Z,16.08
2022-11-05T14:20:30.746Z,16.05
2022-11-05T14:23:25.330Z,16.03
2022-11-05T14:26:00.647Z,16.00
2022-11-05T14:28:39.027Z,16.06
2022-11-05T14:31:27.880Z,16.01
2022-11-05T14:34:10.507Z,15.97
2022-11-05T14:37:14.038Z,15.96
2022-11-05T14:39:41.540Z,15.92
2022-11-05T14:42:25.740Z,15.92
2022-11-05T14:45:08.011Z,15.87
2022-11-05T14:47:38.666Z,15.85
2022-11-05T14:50:11.479Z,15.82
2022-11-05T14:52:40.069Z,15.80
2022-11-05T14:55:22.796Z,15.81
2022-11-05T14:57:52.209Z,15.76
2022-11-05T15:00:40.535Z,15.73
2022-11-05T15:03:45.994Z,15.68
2022-11-05T15:06:24.906Z,15.63
2022-11-05T15:08:51.267Z,15.68
2022-11-05T15:11:20.794Z,15.64
2022-11-05T15:13:53.655Z,15.53
2022-11-05T15:16:33.262Z,15.47
2022-11-05T15:19:00.161Z,15.44
2022-11-05T15:21:29.381Z,15.50
2022-11-05T15:23:56.893Z,15.50
2022-11-05T15:26:37.870Z,15.55
2022-11-05T15:29:16.398Z,15.42
2022-11-05T15:31:45.282Z,15.24
2022-11-05T15:34:31.767Z,15.09
2022-11-05T15:37:22.774Z,14.95
2022-11-05T15:39:51.915Z,14.86
2022-11-05T15:42:24.019Z,14.77
2022-11-05T15:44:56.118Z,14.67
2022-11-05T15:47:30.017Z,14.58
2022-11-05T15:49:58.799Z,14.52
2022-11-05T15:52:33.425Z,14.44
2022-11-05T15:55:12.063Z,14.38
2022-11-05T15:57:51.241Z,14.34
2022-11-05T16:00:27.079Z,14.29
2022-11-05T16:02:58.039Z,14.26
2022-11-05T16:05:31.257Z,14.19
2022-11-05T16:07:59.609Z,14.10
2022-11-05T16:10:31.903Z,14.06
2022-11-05T16:13:36.731Z,13.99
2022-11-05T16:16:06.615Z,13.89
2022-11-05T16:18:39.875Z,13.75
2022-11-05T16:21:18.825Z,13.62
2022-11-05T16:23:59.306Z,13.54
2022-11-05T16:27:01.380Z,13.51
2022-11-05T16:29:29.445Z,13.50
2022-11-05T16:31:57.732Z,13.47
2022-11-05T16:34:44.374Z,13.35
2022-11-05T16:37:13.559Z,13.30
2022-11-05T16:39:40.228Z,13.24
2022-11-05T16:42:24.790Z,13.14
2022-11-05T16:44:52.694Z,13.03
2022-11-05T16:47:20.005Z,12.98
2022-11-05T16:49:48.027Z,12.96
2022-11-05T16:52:14.966Z,12.91
2022-11-05T16:54:41.919Z,12.88
2022-11-05T16:57:26.847Z,12.75
2022-11-05T16:59:54.561Z,12.67
2022-11-05T17:02:21.746Z,12.69
2022-11-05T17:04:48.272Z,12.71
2022-11-05T17:07:14.770Z,12.68
2022-11-05T17:09:41.351Z,12.58
2022-11-05T17:12:09.422Z,12.48
2022-11-05T17:14:35.976Z,12.40
2022-11-05T17:17:03.094Z,12.30
2022-11-05T17:19:29.499Z,12.20
2022-11-05T17:21:56.094Z,12.16
2022-11-05T17:24:22.643Z,12.16
2022-11-05T17:26:49.447Z,12.14
2022-11-05T17:29:16.004Z,12.07
2022-11-05T17:31:42.650Z,12.05
2022-11-05T17:34:10.465Z,12.03
2022-11-05T17:36:36.916Z,12.11
2022-11-05T17:39:04.153Z,12.06
2022-11-05T17:41:30.645Z,12.01
2022-11-05T17:43:57.843Z,11.96
2022-11-05T17:46:24.860Z,12.02
2022-11-05T17:48:51.330Z,11.98
2022-11-05T17:51:19.229Z,11.97
2022-11-05T17:53:46.355Z,12.02
2022-11-05T17:56:19.097Z,11.92
2022-11-05T17:58:51.117Z,11.80
2022-11-05T18:01:33.872Z,11.68
2022-11-05T18:04:07.191Z,11.75
2022-11-05T18:06:35.524Z,11.69
2022-11-05T18:09:02.029Z,11.64
2022-11-05T18:11:28.440Z,11.50
2022-11-05T18:13:54.851Z,11.46
2022-11-05T18:16:21.269Z,11.46
2022-11-05T18:18:49.210Z,11.37
2022-11-05T18:21:15.748Z,11.35
2022-11-05T18:23:42.562Z,11.33
2022-11-05T18:26:13.010Z,11.26
2022-11-05T18:28:39.575Z,11.23
2022-11-05T18:31:18.318Z,11.20
2022-11-05T18:33:45.379Z,11.14
2022-11-05T18:36:23.824Z,10.95
2022-11-05T18:38:50.629Z,10.86
2022-11-05T18:41:17.543Z,10.77
2022-11-05T18:43:44.296Z,10.63
2022-11-05T18:46:29.291Z,10.56
2022-11-05T18:48:59.445Z,10.59
2022-11-05T18:51:26.436Z,10.59
2022-11-05T18:53:54.363Z,10.63
2022-11-05T18:56:21.379Z,10.57
2022-11-05T18:58:47.970Z,10.58
2022-11-05T19:01:18.984Z,10.52
2022-11-05T19:03:46.112Z,10.47
2022-11-05T19:06:13.144Z,10.60
2022-11-05T19:08:39.952Z,10.66
2022-11-05T19:11:18.895Z,10.70
2022-11-05T19:13:45.295Z,10.61
2022-11-05T19:16:14.689Z,10.55
2022-11-05T19:18:41.619Z,10.50
2022-11-05T19:21:10.459Z,10.48
2022-11-05T19:23:38.902Z,10.48
2022-11-05T19:26:07.242Z,10.40
2022-11-05T19:28:34.259Z,10.34
2022-11-05T19:31:00.813Z,10.45
2022-11-05T19:33:28.417Z,10.46
2022-11-05T19:35:55.316Z,10.45
2022-11-05T19:38:21.859Z,10.45
2022-11-05T19:40:48.508Z,10.42
2022-11-05T19:43:15.087Z,10.39
2022-11-05T19:45:45.383Z,10.30
2022-11-05T19:48:17.788Z,10.08
2022-11-05T19:50:45.735Z,10.00
2022-11-05T19:53:12.206Z,10.07
2022-11-05T19:55:42.239Z,10.01
2022-11-05T19:58:09.008Z,10.00
2022-11-05T20:00:36.108Z,10.00
2022-11-05T20:03:02.922Z,9.89
2022-11-05T20:05:29.494Z,9.79
2022-11-05T20:07:56.133Z,9.73
2022-11-05T20:10:22.698Z,9.77
2022-11-05T20:12:49.225Z,9.87
2022-11-05T20:15:15.829Z,9.86
2022-11-05T20:17:42.274Z,9.91
2022-11-05T20:20:09.258Z,9.93
2022-11-05T20:22:35.701Z,9.90
2022-11-05T20:25:02.121Z,9.83
2022-11-05T20:27:29.008Z,9.68
2022-11-05T20:29:55.431Z,9.57
2022-11-05T20:32:21.955Z,9.64
2022-11-05T20:34:48.437Z,9.65
2022-11-05T20:37:14.855Z,9.50
2022-11-05T20:39:41.320Z,9.53
2022-11-05T20:42:07.748Z,9.40
2022-11-05T20:44:34.206Z,9.39
2022-11-05T20:47:00.717Z,9.37
2022-11-05T20:49:27.152Z,9.47
2022-11-05T20:51:53.794Z,9.53
2022-11-05T20:54:20.236Z,9.49
2022-11-05T20:56:46.725Z,9.45
2022-11-05T20:59:13.130Z,9.47
2022-11-05T21:01:39.697Z,9.33
2022-11-05T21:04:06.563Z,9.25
2022-11-05T21:06:34.764Z,9.27
2022-11-05T21:09:02.119Z,9.20
2022-11-05T21:11:28.980Z,9.24
2022-11-05T21:13:55.432Z,9.23
2022-11-05T21:16:22.169Z,9.11
2022-11-05T21:18:48.680Z,8.93
2022-11-05T21:21:19.287Z,8.84
2022-11-05T21:23:45.840Z,8.90
2022-11-05T21:26:14.145Z,9.00
2022-11-05T21:28:41.481Z,9.07
2022-11-05T21:31:09.093Z,9.00
2022-11-05T21:33:35.977Z,8.87
2022-11-05T21:36:11.600Z,8.90
2022-11-05T21:38:39.002Z,8.96
2022-11-05T21:41:06.291Z,9.04
2022-11-05T21:43:33.102Z,8.98
2022-11-05T21:46:04.175Z,8.84
2022-11-05T21:48:31.422Z,8.90
2022-11-05T21:51:16.409Z,8.93
2022-11-05T21:54:01.206Z,8.93
2022-11-05T21:56:47.131Z,8.97
2022-11-05T21:59:34.790Z,8.92
2022-11-05T22:02:01.942Z,8.88
2022-11-05T22:04:33.465Z,8.98
2022-11-05T22:07:00.229Z,8.96
2022-11-05T22:09:27.590Z,8.82
2022-11-05T22:11:54.490Z,8.73
2022-11-05T22:14:21.412Z,8.82
2022-11-05T22:16:47.872Z,8.86
2022-11-05T22:19:14.341Z,8.91
2022-11-05T22:21:40.797Z,8.93
2022-11-05T22:24:07.878Z,8.94
2022-11-05T22:26:35.646Z,8.85
2022-11-05T22:29:02.037Z,8.68
2022-11-05T22:31:33.131Z,8.72
2022-11-05T22:34:02.643Z,8.66
2022-11-05T22:36:29.044Z,8.65
2022-11-05T22:38:55.470Z,8.56
2022-11-05T22:41:22.552Z,8.68
2022-11-05T22:43:49.613Z,8.51
2022-11-05T22:46:22.298Z,8.37
2022-11-05T22:48:49.039Z,8.45
2022-11-05T22:51:18.247Z,8.52
2022-11-05T22:53:45.001Z,8.48
2022-11-05T22:56:14.507Z,8.44
2022-11-05T22:58:41.919Z,8.31
2022-11-05T23:01:11.743Z,8.31
2022-11-05T23:03:40.452Z,8.23
2022-11-05T23:06:49.348Z,8.17
2022-11-05T23:09:36.940Z,8.17
2022-11-05T23:12:06.155Z,8.19
2022-11-05T23:14:32.588Z,8.21
2022-11-05T23:17:17.650Z,8.26
2022-11-05T23:20:02.321Z,8.16
2022-11-05T23:22:49.175Z,8.04
2022-11-05T23:25:21.514Z,8.09
2022-11-05T23:27:51.221Z,8.04
2022-11-05T23:30:20.792Z,8.08
2022-11-05T23:32:47.602Z,8.09
2022-11-05T23:35:14.509Z,7.99
2022-11-05T23:37:59.501Z,8.07
2022-11-05T23:40:28.981Z,8.06
2022-11-05T23:43:14.531Z,8.08
2022-11-05T23:45:55.191Z,8.09
2022-11-05T23:48:34.862Z,8.01
2022-11-05T23:51:10.530Z,7.99
2022-11-05T23:53:39.921Z,7.86
2022-11-05T23:56:09.543Z,7.84
2022-11-05T23:58:37.270Z,7.82
